x

Santa Maria - 21nm Nw Of Point Arguello, Ca (46011) Wave Buoy

3:50pm - Fri 1st Aug 2014 All times are PDT. -7 hours from GMT.

  • Sig Wave height 3.6ft
  • Swell Direction
  • Peak Period 8s
  • Average Period 6s
  • Wind
    11mph, 13mph gusts
  • Sea Temp 64°f
  • Air Temp 62°f
  • Sea Pressure 1013.7mb
  • Santa Maria - 21nm Nw Of Point Arguello, Ca
  • Santa Maria - 21nm Nw Of Point Arguello, Ca

More Historic Weather Station data

Upgrade to MSW Pro to gain access to the past 30 days of data for over 8000 Wavebouys and Weather Stations around the globe.

Join Pro

Comparision Forecast

View Surf forecast
   
Fri 08/01 3:50pm 3.5ft 8s 6s 11 13 mph 1013.7mb 64f 62f
2:50pm 3.5ft 7s 6s 11 13 mph 1014.5mb 64f 62f
1:50pm 3.5ft 8s 6s 7 9 mph 1014.8mb 64f 62f
12:50pm 3.5ft 6s 5s 4 9 mph 1015.1mb 64f 62f
11:50am 3.5ft 8s 6s 7 9 mph 1014.9mb 63f 61f
10:50am 3.5ft 6s 6s 4 9 mph 1015mb 63f 61f
9:50am 3.5ft 8s 6s 4 9 mph 1014.8mb 63f 61f
8:50am 3.5ft 8s 6s 2 9 mph 1014.7mb 63f 60f
7:50am 3.5ft 6s 5s 4 7 mph 1014.4mb 63f 60f
6:50am 3.5ft 8s 5s 4 9 mph 1014.2mb 63f 60f
5:50am 3.5ft 7s 5s 9 11 mph 1013.9mb 63f 60f
4:50am 3.5ft 13s 5s 9 13 mph 1013.6mb 63f 60f
3:50am 3.5ft 8s 5s 9 13 mph 1013.5mb 63f 60f
2:50am 3.5ft 8s 6s 9 13 mph 1013.6mb 64f 60f
1:50am 3.5ft 14s 5s 11 13 mph 1013.8mb 64f 61f
12:50am 3.5ft 8s 5s 11 16 mph 1014.1mb 64f 61f
Thu 07/31 11:50pm 3.5ft 8s 5s 11 13 mph 1014.4mb 64f 61f
10:50pm 3.5ft 8s 5s 13 16 mph 1014.4mb 64f 61f
9:50pm 4ft 8s 5s 13 18 mph 1014.4mb 64f 61f
8:50pm 4ft 8s 5s 13 16 mph 1014mb 64f 62f
7:50pm 4ft 8s 5s 13 16 mph 1013.6mb 64f 62f
6:50pm 4.5ft 7s 5s 13 18 mph 1013.6mb 64f 62f
5:50pm 4.5ft 8s 5s 16 18 mph 1013.7mb 64f 62f
4:50pm 4.5ft 8s 5s 16 20 mph 1013.9mb 64f 62f
3:50pm 4ft 8s 5s 16 20 mph 1014.3mb 64f 62f
2:50pm  -   -   -  18 22 mph 1014.7mb 64f 62f
1:50pm 4ft 8s 5s 16 20 mph 1015.2mb 64f 62f
12:50pm 3.5ft 8s 5s 16 20 mph 1015.5mb 63f 62f
11:50am 3.5ft 8s 5s 16 18 mph 1015.5mb 63f 61f
10:50am 3.5ft 8s 5s 18 20 mph 1015.4mb 63f 61f
9:50am 4ft 8s 6s 13 16 mph 1015.7mb 63f 60f
8:50am 4ft 8s 6s 11 13 mph 1015.8mb 63f 60f
7:50am 4ft 8s 5s 11 13 mph 1015.7mb 63f 60f
6:50am 4ft 8s 6s 13 18 mph 1015.4mb 63f 60f
5:50am 4ft 8s 6s 11 16 mph 1015.5mb 63f 61f
4:50am 3.5ft 8s 6s 11 16 mph 1015.5mb 63f 60f
3:50am 4ft 8s 6s 11 16 mph 1015.5mb 64f 61f
2:50am 4ft 8s 6s 13 16 mph 1015.8mb 64f 61f
1:50am 3.5ft 9s 5s 11 13 mph 1016mb 64f 61f
12:50am 4ft 8s 5s 11 16 mph 1015.9mb 64f 61f
Wed 07/30 11:50pm 4.5ft 8s 6s 11 13 mph 1016.4mb 64f 61f
10:50pm 4.5ft 8s 5s 11 16 mph 1016.4mb 64f 61f
9:50pm 4.5ft 8s 5s 16 18 mph 1016.3mb 64f 62f
8:50pm 4.5ft 8s 6s 13 18 mph 1015.8mb 64f 62f
7:50pm 4.5ft 8s 5s 16 18 mph 1015.1mb 64f 62f
6:50pm 4.5ft 8s 5s 13 16 mph 1015.1mb 64f 62f
5:50pm 4.5ft 8s 5s 16 18 mph 1015.3mb 64f 62f
4:50pm 4.5ft 8s 5s 11 13 mph 1015.8mb 64f 62f
3:50pm 4ft 8s 5s 18 20 mph 1015.8mb 64f 62f
2:50pm 4ft 8s 5s 18 22 mph 1016.3mb 64f 62f
1:50pm 3.5ft 8s 5s 16 18 mph 1016.6mb 64f 62f
12:50pm 3.5ft 9s 5s 13 16 mph 1016.9mb 64f 62f
11:50am  -   -   -  13 18 mph 1017mb 64f 62f
10:50am 3.5ft 8s 5s 13 16 mph 1017.1mb 64f 62f
9:50am 3.5ft 8s 5s 13 16 mph 1016.9mb 63f 61f
8:50am 3.5ft 8s 5s 13 16 mph 1016.8mb 64f 61f
7:50am 3.5ft 8s 5s 13 18 mph 1016.4mb 64f 61f
6:50am 4ft 8s 5s 13 16 mph 1016.5mb 64f 61f
5:50am 3.5ft 8s 5s 13 16 mph 1016.2mb 64f 61f
4:50am 3.5ft 8s 5s 13 16 mph 1015.8mb 64f 61f
3:50am 3.5ft 8s 6s 13 16 mph 1015.9mb 64f 61f
2:50am 3.5ft 8s 5s 11 16 mph 1016mb 64f 61f
1:50am 3.5ft 8s 5s 13 16 mph 1016.3mb 63f 61f
12:50am 3.5ft 8s 6s 13 16 mph 1016.5mb 63f 61f
Tue 07/29 11:50pm 3.5ft 8s 5s 11 13 mph 1016.9mb 63f 62f
10:50pm 3.5ft 8s 5s 13 16 mph 1016.8mb 63f 62f
9:50pm 3.5ft 8s 5s 11 13 mph 1017.1mb 63f 62f
8:50pm 3.5ft 8s 5s 13 16 mph 1016.4mb 63f 63f
7:50pm 3.5ft 8s 5s 13 16 mph 1016.1mb 63f 63f
6:50pm 4ft 8s 5s 13 16 mph 1016.2mb 64f 63f
5:50pm 3.5ft 9s 5s 13 16 mph 1016.2mb 64f 63f
4:50pm 3.5ft 9s 5s 13 16 mph 1016.5mb 64f 63f
3:50pm 3.5ft 9s 5s 13 16 mph 1017mb 64f 63f
2:50pm 3ft 8s 5s 13 16 mph 1017.8mb 63f 63f
1:50pm 3.5ft 8s 6s 13 16 mph 1018.2mb 63f 63f
12:50pm 3.5ft 8s 6s 11 13 mph 1018.7mb 63f 63f
11:50am 3.5ft 8s 6s 9 11 mph 1018.9mb 63f 62f
10:50am 3.5ft 9s 6s 9 11 mph 1018.9mb 63f 62f
9:50am 3.5ft 8s 6s 9
mph
1018.9mb 63f 62f
8:50am 4ft 8s 7s 7 11 mph 1018.8mb 63f 62f
7:50am 4ft 8s 7s 7 11 mph 1018.6mb 63f 62f
6:50am 4.5ft 8s 7s 9 11 mph 1017.8mb 63f 62f
5:50am 4.5ft 8s 7s 11 13 mph 1017.4mb 63f 62f
4:50am 3.5ft 8s 7s 9 13 mph 1017.5mb 64f 62f
3:50am 4ft 8s 7s 9 13 mph 1017.5mb 64f 62f
2:50am 4ft 9s 7s 9 13 mph 1017.6mb 63f 63f
1:50am 3.5ft 9s 7s 9 13 mph 1017.7mb 63f 63f
12:50am 3.5ft 8s 7s 7 9 mph 1018mb 63f 63f
Mon 07/28 11:50pm 3.5ft 8s 7s 9 11 mph 1017.9mb 63f 64f